Time;durP1;ratioP1;P1;durP2;ratioP2;P2;SDS_P1;SDS_P2;PMS_P1;PMS_P2;Temp;Humidity;BMP_temperature;BMP_pressure;BME280_temperature;BME280_humidity;BME280_pressure;Samples;Min_cycle;Max_cycle;Signal;HPM_P1;HPM_P2
2022/07/16 00:02:07;;;;;;;;;;;18.20;99.90;;;;;;8380870;28;19937;-73
2022/07/16 00:06:08;;;;;;;;;;;18.20;99.90;;;;;;8391884;28;19928;-73
2022/07/16 00:10:10;;;;;;;;;;;18.20;99.90;;;;;;8380595;28;19924;-73
2022/07/16 00:14:12;;;;;;;;;;;18.30;99.90;;;;;;8383652;28;19940;-73
2022/07/16 00:22:34;;;;;;;;;;;18.30;99.90;;;;;;8379354;28;19925;-73
2022/07/16 00:26:36;;;;;;;;;;;18.30;99.90;;;;;;8379705;28;19932;-73
2022/07/16 00:30:38;;;;;;;;;;;18.30;99.90;;;;;;8390993;28;20376;-73
2022/07/16 00:34:40;;;;;;;;;;;18.30;99.90;;;;;;8383758;28;19924;-73
2022/07/16 00:38:41;;;;;;;;;;;18.30;99.90;;;;;;8370240;28;19928;-73
2022/07/16 00:42:43;;;;;;;;;;;18.30;99.90;;;;;;8370184;28;19925;-73
2022/07/16 00:46:46;;;;;;;;;;;18.30;99.90;;;;;;8383287;28;19931;-73
2022/07/16 00:50:48;;;;;;;;;;;18.20;99.90;;;;;;8380973;28;20003;-73
2022/07/16 00:54:49;;;;;;;;;;;18.20;99.90;;;;;;8384361;28;20279;-73
2022/07/16 00:58:52;;;;;;;;;;;18.20;99.90;;;;;;8381519;28;19968;-73
2022/07/16 01:02:53;;;;;;;;;;;18.20;99.90;;;;;;8402071;28;19947;-73
2022/07/16 01:06:57;;;;;;;;;;;18.20;99.90;;;;;;8382440;28;20404;-73
2022/07/16 01:11:00;;;;;;;;;;;18.20;99.90;;;;;;8402960;28;19931;-73
2022/07/16 01:15:02;;;;;;;;;;;18.10;99.90;;;;;;8382699;28;19932;-74
2022/07/16 01:19:05;;;;;;;;;;;18.10;99.90;;;;;;8389095;28;19931;-73
2022/07/16 01:23:06;;;;;;;;;;;18.10;99.90;;;;;;8393219;28;19936;-73
2022/07/16 01:27:08;;;;;;;;;;;18.10;99.90;;;;;;8373088;28;20426;-73
2022/07/16 01:31:11;;;;;;;;;;;18.10;99.90;;;;;;8390227;28;20347;-73
2022/07/16 01:35:12;;;;;;;;;;;18.10;99.90;;;;;;8384534;28;19932;-73
2022/07/16 01:39:14;;;;;;;;;;;18.00;99.90;;;;;;8380227;28;19952;-73
2022/07/16 01:43:17;;;;;;;;;;;18.10;99.90;;;;;;8394008;28;19924;-73
2022/07/16 01:47:19;;;;;;;;;;;18.00;99.90;;;;;;8392739;28;19995;-73
2022/07/16 01:51:20;;;;;;;;;;;18.00;99.90;;;;;;8404279;28;19982;-73
2022/07/16 01:55:22;;;;;;;;;;;18.00;99.90;;;;;;8400263;28;20003;-73
2022/07/16 01:59:24;;;;;;;;;;;18.00;99.90;;;;;;8371668;28;19929;-73
2022/07/16 02:03:25;;;;;;;;;;;18.00;99.90;;;;;;8379552;28;19932;-73
2022/07/16 02:07:27;;;;;;;;;;;18.00;99.90;;;;;;8391002;28;19944;-73
2022/07/16 02:11:29;;;;;;;;;;;17.90;99.90;;;;;;8382471;28;19948;-73
2022/07/16 02:15:31;;;;;;;;;;;17.90;99.90;;;;;;8388194;28;19925;-73
2022/07/16 02:19:32;;;;;;;;;;;17.90;99.90;;;;;;8388683;28;19962;-73
2022/07/16 02:23:34;;;;;;;;;;;17.90;99.90;;;;;;8384963;28;19932;-73
2022/07/16 02:27:36;;;;;;;;;;;17.90;99.90;;;;;;8386577;28;19925;-73
2022/07/16 02:31:37;;;;;;;;;;;17.80;99.90;;;;;;8381975;28;19985;-73
2022/07/16 02:35:39;;;;;;;;;;;17.70;99.90;;;;;;8382302;28;19936;-73
2022/07/16 02:39:41;;;;;;;;;;;17.70;99.90;;;;;;8382216;28;19978;-73
2022/07/16 02:43:43;;;;;;;;;;;17.70;99.90;;;;;;8379802;28;19932;-73
2022/07/16 02:47:45;;;;;;;;;;;17.60;99.90;;;;;;8379430;28;19933;-73
2022/07/16 02:51:47;;;;;;;;;;;17.60;99.90;;;;;;8374396;28;20352;-73
2022/07/16 02:55:48;;;;;;;;;;;17.50;99.90;;;;;;8396938;28;20401;-73
2022/07/16 02:59:50;;;;;;;;;;;17.40;99.90;;;;;;8385905;28;20368;-73
2022/07/16 03:03:51;;;;;;;;;;;17.40;99.90;;;;;;8381178;28;19933;-73
2022/07/16 03:07:53;;;;;;;;;;;17.30;99.90;;;;;;8384684;28;19970;-73
2022/07/16 03:11:55;;;;;;;;;;;17.20;99.90;;;;;;8372988;28;20022;-73
2022/07/16 03:15:57;;;;;;;;;;;17.20;99.90;;;;;;8385733;28;19925;-73
2022/07/16 03:19:58;;;;;;;;;;;17.20;99.90;;;;;;8382526;28;20368;-72
2022/07/16 03:24:00;;;;;;;;;;;17.10;99.90;;;;;;8379953;28;19924;-73
2022/07/16 03:28:02;;;;;;;;;;;17.10;99.90;;;;;;8386704;28;19932;-73
2022/07/16 03:32:03;;;;;;;;;;;17.00;99.90;;;;;;8385064;28;20561;-73
2022/07/16 03:36:05;;;;;;;;;;;17.00;99.90;;;;;;8372988;28;19947;-73
2022/07/16 03:40:07;;;;;;;;;;;17.00;99.90;;;;;;8378270;28;19943;-73
2022/07/16 03:44:10;;;;;;;;;;;17.00;99.90;;;;;;8372452;28;19925;-73
2022/07/16 03:48:11;;;;;;;;;;;17.10;99.90;;;;;;8385501;28;19951;-73
2022/07/16 03:52:13;;;;;;;;;;;17.10;99.90;;;;;;8388579;28;19931;-73
2022/07/16 03:56:15;;;;;;;;;;;17.10;99.90;;;;;;8377015;28;19925;-73
2022/07/16 04:00:16;;;;;;;;;;;17.10;99.90;;;;;;8382079;28;19998;-73
2022/07/16 04:04:18;;;;;;;;;;;17.10;99.90;;;;;;8379306;28;19933;-73
2022/07/16 04:08:20;;;;;;;;;;;17.20;99.90;;;;;;8380229;28;19935;-73
2022/07/16 04:12:22;;;;;;;;;;;17.20;99.90;;;;;;8409259;28;19928;-74
2022/07/16 04:16:24;;;;;;;;;;;17.20;99.90;;;;;;8385311;28;19925;-73
2022/07/16 04:20:26;;;;;;;;;;;17.30;99.90;;;;;;8365795;28;19971;-73
2022/07/16 04:24:27;;;;;;;;;;;17.30;99.90;;;;;;8377204;28;19932;-72
2022/07/16 04:28:29;;;;;;;;;;;17.40;99.90;;;;;;8386385;28;19944;-73
2022/07/16 04:32:31;;;;;;;;;;;17.40;99.90;;;;;;8387050;28;19925;-73
2022/07/16 04:36:32;;;;;;;;;;;17.50;99.90;;;;;;8377554;28;19924;-73
2022/07/16 04:40:34;;;;;;;;;;;17.60;99.90;;;;;;8388654;28;19925;-73
2022/07/16 04:44:36;;;;;;;;;;;17.60;99.90;;;;;;8384748;28;19947;-73
2022/07/16 04:48:38;;;;;;;;;;;17.70;99.90;;;;;;8374907;28;20284;-73
2022/07/16 04:52:40;;;;;;;;;;;17.80;99.90;;;;;;8371212;28;19924;-73
2022/07/16 04:56:41;;;;;;;;;;;17.90;99.90;;;;;;8383261;28;19924;-72
2022/07/16 05:00:43;;;;;;;;;;;18.00;99.90;;;;;;8371044;28;19975;-72
2022/07/16 05:04:45;;;;;;;;;;;18.10;99.90;;;;;;8397329;28;19947;-73
2022/07/16 05:08:46;;;;;;;;;;;18.20;99.90;;;;;;8370589;28;20342;-73
2022/07/16 05:12:48;;;;;;;;;;;18.20;99.90;;;;;;8355832;28;20011;-73
2022/07/16 05:16:50;;;;;;;;;;;18.20;99.90;;;;;;8372309;28;19991;-74
2022/07/16 05:20:51;;;;;;;;;;;18.30;99.90;;;;;;8384233;28;19936;-73
2022/07/16 05:24:53;;;;;;;;;;;18.30;99.90;;;;;;8384480;28;19924;-73
2022/07/16 05:28:55;;;;;;;;;;;18.40;99.90;;;;;;8380654;28;19924;-73
2022/07/16 05:32:56;;;;;;;;;;;18.40;99.90;;;;;;8388356;28;19929;-72
2022/07/16 05:36:58;;;;;;;;;;;18.40;99.90;;;;;;8374186;28;19930;-73
2022/07/16 05:41:03;;;;;;;;;;;18.40;99.90;;;;;;8393334;28;19925;-73
2022/07/16 05:45:05;;;;;;;;;;;18.50;99.90;;;;;;8384743;28;19958;-74
2022/07/16 05:49:07;;;;;;;;;;;18.50;99.90;;;;;;8387054;28;19925;-73
2022/07/16 05:53:09;;;;;;;;;;;18.50;99.90;;;;;;8370063;28;19970;-73
2022/07/16 05:57:10;;;;;;;;;;;18.40;99.90;;;;;;8370850;28;19925;-73
2022/07/16 06:01:12;;;;;;;;;;;18.50;99.90;;;;;;8369275;28;19936;-73
2022/07/16 06:05:14;;;;;;;;;;;18.50;99.90;;;;;;8368052;28;19925;-73
2022/07/16 06:09:15;;;;;;;;;;;18.50;99.90;;;;;;8377366;28;20220;-73
2022/07/16 06:13:17;;;;;;;;;;;18.50;99.90;;;;;;8364953;28;19939;-73
2022/07/16 06:17:18;;;;;;;;;;;18.40;99.90;;;;;;8366008;28;20406;-74
2022/07/16 06:21:20;;;;;;;;;;;18.40;99.90;;;;;;8369540;28;19929;-73
2022/07/16 06:25:22;;;;;;;;;;;18.40;99.90;;;;;;8364282;28;19929;-73
2022/07/16 06:29:24;;;;;;;;;;;18.40;99.90;;;;;;8367366;28;20304;-73
2022/07/16 06:33:26;;;;;;;;;;;18.50;99.90;;;;;;8365797;28;19935;-74
2022/07/16 06:37:27;;;;;;;;;;;18.60;99.90;;;;;;8365005;28;19924;-73
2022/07/16 06:41:29;;;;;;;;;;;18.70;99.90;;;;;;8363258;28;19925;-73
2022/07/16 06:45:31;;;;;;;;;;;18.70;99.90;;;;;;8364671;28;19932;-73
2022/07/16 06:49:33;;;;;;;;;;;18.70;99.90;;;;;;8364864;28;19932;-73
2022/07/16 06:53:35;;;;;;;;;;;18.70;99.90;;;;;;8363360;28;19932;-73
2022/07/16 06:57:37;;;;;;;;;;;18.70;99.90;;;;;;8369618;28;21320;-73
2022/07/16 07:01:38;;;;;;;;;;;18.60;99.90;;;;;;8373316;28;20380;-74
2022/07/16 07:05:40;;;;;;;;;;;18.70;99.90;;;;;;8373619;28;20372;-74
2022/07/16 07:09:42;;;;;;;;;;;18.70;99.90;;;;;;8374858;28;19943;-74
2022/07/16 07:13:43;;;;;;;;;;;18.80;99.90;;;;;;8374133;28;19936;-74
2022/07/16 07:17:45;;;;;;;;;;;18.90;99.90;;;;;;8375382;28;20031;-74
2022/07/16 07:21:47;;;;;;;;;;;19.00;99.90;;;;;;8372940;28;19929;-74
2022/07/16 07:25:49;;;;;;;;;;;19.10;99.90;;;;;;8372702;28;20373;-73
2022/07/16 07:29:50;;;;;;;;;;;19.20;99.90;;;;;;8372932;28;19966;-73
2022/07/16 07:33:52;;;;;;;;;;;19.40;99.90;;;;;;8388160;28;19932;-73
2022/07/16 07:37:54;;;;;;;;;;;19.60;99.90;;;;;;8376665;28;19928;-73
2022/07/16 07:41:56;;;;;;;;;;;19.70;99.90;;;;;;8377890;28;19932;-73
2022/07/16 07:45:58;;;;;;;;;;;19.80;99.90;;;;;;8377132;28;19932;-74
2022/07/16 07:50:03;;;;;;;;;;;19.90;99.90;;;;;;8385998;28;20368;-73
2022/07/16 07:54:05;;;;;;;;;;;19.90;99.90;;;;;;8369726;28;19933;-73
2022/07/16 08:03:11;;;;;;;;;;;19.60;99.90;;;;;;8371197;28;20325;-73
2022/07/16 08:07:13;;;;;;;;;;;19.50;99.90;;;;;;8371815;28;19935;-74
2022/07/16 08:11:14;;;;;;;;;;;19.50;99.90;;;;;;8366288;28;19932;-73
2022/07/16 08:15:16;;;;;;;;;;;19.50;99.90;;;;;;8372431;28;19925;-74
2022/07/16 08:19:18;;;;;;;;;;;19.40;99.90;;;;;;8386714;28;19932;-73
2022/07/16 08:25:44;;;;;;;;;;;19.40;99.90;;;;;;8375747;28;19929;-74
2022/07/16 08:27:41;;;;;;;;;;;19.50;99.90;;;;;;8372569;28;19936;-74
2022/07/16 08:31:43;;;;;;;;;;;19.60;99.90;;;;;;8370734;28;20332;-74
2022/07/16 08:35:45;;;;;;;;;;;19.70;99.90;;;;;;8373633;28;20280;-74
2022/07/16 08:39:47;;;;;;;;;;;19.90;99.90;;;;;;8370483;28;19936;-74
2022/07/16 08:43:48;;;;;;;;;;;20.00;99.90;;;;;;8371256;28;19925;-74
2022/07/16 08:47:51;;;;;;;;;;;20.10;99.90;;;;;;8386663;28;19936;-74
2022/07/16 08:51:58;;;;;;;;;;;20.20;99.90;;;;;;8367325;28;19929;-74
2022/07/16 08:56:00;;;;;;;;;;;20.20;99.90;;;;;;8372478;28;19933;-74
2022/07/16 09:00:03;;;;;;;;;;;20.30;99.90;;;;;;8372327;28;20398;-75
2022/07/16 09:04:04;;;;;;;;;;;20.30;99.90;;;;;;8369789;28;19925;-75
2022/07/16 09:08:06;;;;;;;;;;;20.40;99.90;;;;;;8375547;28;19924;-75
2022/07/16 09:12:08;;;;;;;;;;;20.40;99.90;;;;;;8371060;28;20394;-74
2022/07/16 09:16:26;;;;;;;;;;;20.50;99.90;;;;;;8372419;28;19925;-75
2022/07/16 09:20:31;;;;;;;;;;;20.60;99.90;;;;;;8372962;28;19936;-74
2022/07/16 09:24:46;;;;;;;;;;;20.60;99.90;;;;;;8376822;28;20375;-74
2022/07/16 09:28:48;;;;;;;;;;;20.60;99.90;;;;;;8378021;28;19939;-73
2022/07/16 09:32:50;;;;;;;;;;;20.70;99.90;;;;;;8377713;28;19928;-74
2022/07/16 09:36:55;;;;;;;;;;;20.70;99.90;;;;;;8380334;28;19929;-74
2022/07/16 09:41:01;;;;;;;;;;;20.70;99.90;;;;;;8379179;28;19959;-74
2022/07/16 09:45:02;;;;;;;;;;;20.60;99.90;;;;;;8374878;28;19936;-75
2022/07/16 09:49:04;;;;;;;;;;;20.50;99.90;;;;;;8380171;28;21200;-75
2022/07/16 09:53:12;;;;;;;;;;;20.50;99.90;;;;;;8375571;28;19935;-75
2022/07/16 09:57:18;;;;;;;;;;;20.50;99.90;;;;;;8376787;28;19931;-74
2022/07/16 10:01:20;;;;;;;;;;;20.40;99.90;;;;;;8391852;28;19925;-74
2022/07/16 10:05:22;;;;;;;;;;;20.40;99.90;;;;;;8376419;28;19928;-72
2022/07/16 10:09:24;;;;;;;;;;;20.40;99.90;;;;;;8361397;28;19936;-72
2022/07/16 10:13:27;;;;;;;;;;;20.40;99.90;;;;;;8374391;28;19924;-71
2022/07/16 10:17:34;;;;;;;;;;;20.40;99.90;;;;;;8359235;28;19963;-72
2022/07/16 10:21:36;;;;;;;;;;;20.40;99.90;;;;;;8386312;28;20047;-73
2022/07/16 10:25:37;;;;;;;;;;;20.60;99.90;;;;;;8376153;28;19924;-73
2022/07/16 10:29:40;;;;;;;;;;;20.70;99.90;;;;;;8372175;28;19931;-74
2022/07/16 10:33:42;;;;;;;;;;;20.70;99.90;;;;;;8366003;28;20156;-73
2022/07/16 10:37:43;;;;;;;;;;;20.80;99.90;;;;;;8365225;28;20279;-74
2022/07/16 10:42:06;;;;;;;;;;;20.90;99.90;;;;;;8373710;28;19967;-74
2022/07/16 10:46:09;;;;;;;;;;;21.00;99.90;;;;;;8363231;28;19955;-74
2022/07/16 10:50:15;;;;;;;;;;;21.00;99.90;;;;;;8369385;28;20333;-74
2022/07/16 10:54:17;;;;;;;;;;;21.00;99.90;;;;;;8366989;28;20007;-74
2022/07/16 10:58:24;;;;;;;;;;;20.90;99.90;;;;;;8371770;28;19975;-75
2022/07/16 11:02:25;;;;;;;;;;;20.90;99.90;;;;;;8371785;28;20241;-75
2022/07/16 11:06:28;;;;;;;;;;;20.90;99.90;;;;;;8368601;28;19946;-74
2022/07/16 11:10:30;;;;;;;;;;;21.00;99.90;;;;;;8370095;28;19929;-74
2022/07/16 11:14:32;;;;;;;;;;;21.10;99.90;;;;;;8370137;28;20540;-78
2022/07/16 11:18:37;;;;;;;;;;;21.20;99.90;;;;;;8379944;28;19936;-75
2022/07/16 11:22:39;;;;;;;;;;;21.10;99.90;;;;;;8358211;28;19925;-76
2022/07/16 11:26:40;;;;;;;;;;;21.10;99.90;;;;;;8375831;28;20311;-77
2022/07/16 11:30:58;;;;;;;;;;;21.10;99.90;;;;;;8373333;28;19932;-74
2022/07/16 11:35:20;;;;;;;;;;;21.10;99.90;;;;;;8373911;28;19932;-73
2022/07/16 11:39:23;;;;;;;;;;;21.20;99.90;;;;;;8374809;28;19932;-71
2022/07/16 11:43:29;;;;;;;;;;;21.30;99.90;;;;;;8370236;28;19925;-76
2022/07/16 11:47:30;;;;;;;;;;;21.40;99.90;;;;;;8371997;28;20343;-76
2022/07/16 11:51:32;;;;;;;;;;;21.40;99.90;;;;;;8367463;28;20288;-75
2022/07/16 11:55:40;;;;;;;;;;;21.50;99.90;;;;;;8370904;28;19928;-73
2022/07/16 11:59:47;;;;;;;;;;;21.50;99.90;;;;;;8384460;28;19925;-73
2022/07/16 12:03:53;;;;;;;;;;;21.50;99.90;;;;;;8353707;28;19929;-67
2022/07/16 12:07:55;;;;;;;;;;;21.50;99.90;;;;;;8362618;28;19924;-67
2022/07/16 12:12:18;;;;;;;;;;;21.60;99.90;;;;;;8355864;28;20087;-66
2022/07/16 12:16:20;;;;;;;;;;;21.60;99.90;;;;;;8358408;28;19932;-66
2022/07/16 12:20:21;;;;;;;;;;;21.60;99.90;;;;;;8355271;28;19925;-67
2022/07/16 12:24:31;;;;;;;;;;;21.50;99.90;;;;;;8338686;28;19935;-67
2022/07/16 12:28:33;;;;;;;;;;;21.50;99.90;;;;;;8363731;28;19936;-70
2022/07/16 12:32:47;;;;;;;;;;;21.40;99.90;;;;;;8356836;28;19939;-70
2022/07/16 12:36:49;;;;;;;;;;;21.40;99.90;;;;;;8358901;28;20412;-70
2022/07/16 12:40:51;;;;;;;;;;;21.40;99.90;;;;;;8365029;28;20279;-70
2022/07/16 12:44:52;;;;;;;;;;;21.50;99.90;;;;;;8371585;28;19933;-72
2022/07/16 12:48:56;;;;;;;;;;;21.60;99.90;;;;;;8360176;28;19957;-71
2022/07/16 12:52:58;;;;;;;;;;;21.60;99.90;;;;;;8333553;28;19956;-67
2022/07/16 13:01:20;;;;;;;;;;;21.70;99.90;;;;;;8357744;28;19928;-66
2022/07/16 13:05:25;;;;;;;;;;;21.90;99.90;;;;;;8359560;28;20525;-66
2022/07/16 13:09:26;;;;;;;;;;;22.00;99.90;;;;;;8360365;28;19935;-66
2022/07/16 13:13:28;;;;;;;;;;;22.10;99.90;;;;;;8359947;28;19975;-66
2022/07/16 13:17:30;;;;;;;;;;;22.10;99.90;;;;;;8360553;28;20257;-66
2022/07/16 13:21:33;;;;;;;;;;;22.10;99.90;;;;;;8342492;28;19933;-66
2022/07/16 13:25:34;;;;;;;;;;;22.10;99.90;;;;;;8360047;28;20395;-66
2022/07/16 13:29:36;;;;;;;;;;;22.10;99.90;;;;;;8360248;28;20356;-66
2022/07/16 13:33:38;;;;;;;;;;;22.10;99.90;;;;;;8358535;28;19928;-66
2022/07/16 13:37:40;;;;;;;;;;;22.00;99.90;;;;;;8357987;28;19925;-66
2022/07/16 13:41:42;;;;;;;;;;;22.00;99.90;;;;;;8358025;28;19921;-66
2022/07/16 13:45:44;;;;;;;;;;;22.10;99.90;;;;;;8355966;28;19947;-66
2022/07/16 13:49:48;;;;;;;;;;;22.10;99.90;;;;;;8358770;28;19920;-66
2022/07/16 13:53:50;;;;;;;;;;;22.10;99.90;;;;;;8355647;28;19931;-66
2022/07/16 14:02:13;;;;;;;;;;;22.20;99.90;;;;;;8352565;28;19925;-66
2022/07/16 14:06:14;;;;;;;;;;;22.20;99.90;;;;;;8342429;28;19925;-66
2022/07/16 14:10:16;;;;;;;;;;;22.20;99.90;;;;;;8354037;28;20376;-66
2022/07/16 14:14:18;;;;;;;;;;;22.30;99.90;;;;;;8355539;28;20303;-66
2022/07/16 14:18:20;;;;;;;;;;;22.30;99.90;;;;;;8356292;28;19932;-66
2022/07/16 14:22:22;;;;;;;;;;;22.40;99.90;;;;;;8354437;28;20572;-66
2022/07/16 14:26:23;;;;;;;;;;;22.50;99.90;;;;;;8371179;28;19921;-66
2022/07/16 14:30:25;;;;;;;;;;;22.50;99.90;;;;;;8354542;28;19928;-66
2022/07/16 14:34:27;;;;;;;;;;;22.70;99.90;;;;;;8366904;28;19921;-66
2022/07/16 14:38:28;;;;;;;;;;;22.80;99.90;;;;;;8342179;28;19924;-66
2022/07/16 14:42:30;;;;;;;;;;;22.80;99.90;;;;;;8355193;28;19929;-66
2022/07/16 14:46:32;;;;;;;;;;;22.90;99.90;;;;;;8355700;28;19924;-66
2022/07/16 14:50:33;;;;;;;;;;;23.00;99.90;;;;;;8355040;28;19936;-66
2022/07/16 14:54:35;;;;;;;;;;;23.20;99.90;;;;;;8355177;28;19925;-66
2022/07/16 14:58:37;;;;;;;;;;;23.30;99.90;;;;;;8354543;28;20435;-66
2022/07/16 15:02:39;;;;;;;;;;;23.60;99.90;;;;;;8352877;28;19959;-66
2022/07/16 15:06:40;;;;;;;;;;;23.70;99.90;;;;;;8352757;28;20344;-66
2022/07/16 15:10:42;;;;;;;;;;;23.70;99.90;;;;;;8353360;28;20356;-66
2022/07/16 15:14:44;;;;;;;;;;;23.50;99.90;;;;;;8353942;28;19932;-66
2022/07/16 15:18:45;;;;;;;;;;;23.50;99.90;;;;;;8353332;28;19929;-66
2022/07/16 15:22:47;;;;;;;;;;;23.40;99.90;;;;;;8353538;28;19928;-66
2022/07/16 15:26:49;;;;;;;;;;;23.40;99.90;;;;;;8371572;28;19925;-66
2022/07/16 15:30:51;;;;;;;;;;;23.40;99.90;;;;;;8355317;28;19929;-66
2022/07/16 15:34:52;;;;;;;;;;;23.40;99.90;;;;;;8352687;28;20372;-66
2022/07/16 15:38:54;;;;;;;;;;;23.40;99.90;;;;;;8356587;28;19924;-66
2022/07/16 15:42:57;;;;;;;;;;;23.30;99.90;;;;;;8364776;28;19935;-66
2022/07/16 15:46:58;;;;;;;;;;;23.20;99.90;;;;;;8354543;28;20005;-66
2022/07/16 15:51:01;;;;;;;;;;;23.10;99.90;;;;;;8368520;28;20249;-66
2022/07/16 15:55:03;;;;;;;;;;;23.10;99.90;;;;;;8355373;28;19927;-66
2022/07/16 15:59:05;;;;;;;;;;;23.30;99.90;;;;;;8353763;28;19928;-66
2022/07/16 16:03:09;;;;;;;;;;;23.60;99.90;;;;;;8348639;28;20011;-66
2022/07/16 16:07:11;;;;;;;;;;;23.90;99.90;;;;;;8355496;28;19927;-66
2022/07/16 16:11:13;;;;;;;;;;;24.00;99.90;;;;;;8370281;28;19921;-66
2022/07/16 16:15:15;;;;;;;;;;;24.10;99.90;;;;;;8367472;28;19920;-66
2022/07/16 16:19:16;;;;;;;;;;;24.50;99.90;;;;;;8352182;28;19936;-66
2022/07/16 16:23:19;;;;;;;;;;;25.00;99.90;;;;;;8352301;28;19940;-66
2022/07/16 16:27:21;;;;;;;;;;;25.30;99.90;;;;;;8354629;28;19925;-66
2022/07/16 16:31:22;;;;;;;;;;;25.60;99.90;;;;;;8353927;28;19924;-66
2022/07/16 16:35:24;;;;;;;;;;;26.00;99.90;;;;;;8353477;28;19928;-66
2022/07/16 16:39:25;;;;;;;;;;;26.30;99.90;;;;;;8335040;28;19920;-66
2022/07/16 16:43:27;;;;;;;;;;;26.40;99.90;;;;;;8351001;28;19929;-66
2022/07/16 16:47:29;;;;;;;;;;;26.50;99.90;;;;;;8350419;28;19920;-66
2022/07/16 16:51:30;;;;;;;;;;;26.60;99.90;;;;;;8351341;28;19968;-66
2022/07/16 16:55:33;;;;;;;;;;;26.60;99.90;;;;;;8353750;28;19955;-66
2022/07/16 16:59:34;;;;;;;;;;;26.50;99.90;;;;;;8350970;28;20376;-66
2022/07/16 17:03:36;;;;;;;;;;;26.30;99.90;;;;;;8345216;28;19986;-66
2022/07/16 17:07:38;;;;;;;;;;;26.30;99.90;;;;;;8352612;28;19920;-65
2022/07/16 17:11:40;;;;;;;;;;;26.20;99.90;;;;;;8333999;28;19920;-66
2022/07/16 17:15:42;;;;;;;;;;;26.10;99.90;;;;;;8354382;28;19920;-66
2022/07/16 17:19:43;;;;;;;;;;;26.00;99.90;;;;;;8362589;28;19935;-66
2022/07/16 17:23:45;;;;;;;;;;;25.70;99.90;;;;;;8349905;28;19921;-66
2022/07/16 17:27:46;;;;;;;;;;;25.30;99.90;;;;;;8335580;28;19928;-66
2022/07/16 17:31:49;;;;;;;;;;;25.10;99.90;;;;;;8355583;28;19932;-66
2022/07/16 17:35:50;;;;;;;;;;;24.80;99.90;;;;;;8353371;28;19935;-66
2022/07/16 17:39:52;;;;;;;;;;;24.50;99.90;;;;;;8362965;28;19929;-66
2022/07/16 17:43:54;;;;;;;;;;;24.40;99.90;;;;;;8354142;28;20356;-66
2022/07/16 17:47:55;;;;;;;;;;;24.20;99.90;;;;;;8371362;28;19956;-66
2022/07/16 17:51:57;;;;;;;;;;;24.00;99.80;;;;;;8370738;28;20003;-66
2022/07/16 17:55:59;;;;;;;;;;;23.80;99.70;;;;;;8359750;28;19932;-66
2022/07/16 18:00:00;;;;;;;;;;;23.70;99.50;;;;;;8353625;28;20229;-66
2022/07/16 18:04:02;;;;;;;;;;;23.50;99.40;;;;;;8356384;28;20291;-66
2022/07/16 18:08:04;;;;;;;;;;;23.40;99.30;;;;;;8360095;28;19921;-66
2022/07/16 18:12:06;;;;;;;;;;;23.20;99.10;;;;;;8347139;28;19928;-66
2022/07/16 18:16:08;;;;;;;;;;;23.10;99.00;;;;;;8356743;28;19925;-66
2022/07/16 18:20:10;;;;;;;;;;;23.00;98.90;;;;;;8355352;28;19920;-66
2022/07/16 18:24:12;;;;;;;;;;;22.90;98.80;;;;;;8360022;28;19928;-66
2022/07/16 18:28:13;;;;;;;;;;;22.80;98.70;;;;;;8356854;28;19929;-65
2022/07/16 18:32:15;;;;;;;;;;;22.70;98.60;;;;;;8358080;28;19931;-66
2022/07/16 18:36:17;;;;;;;;;;;22.50;98.60;;;;;;8352574;28;20317;-66
2022/07/16 18:40:18;;;;;;;;;;;22.40;98.40;;;;;;8374616;28;20372;-66
2022/07/16 18:44:20;;;;;;;;;;;22.30;98.40;;;;;;8353436;28;19931;-66
2022/07/16 18:48:22;;;;;;;;;;;22.20;98.30;;;;;;8356339;28;19925;-66
2022/07/16 18:52:23;;;;;;;;;;;22.10;98.20;;;;;;8354539;28;19927;-66
2022/07/16 18:56:31;;;;;;;;;;;22.00;98.10;;;;;;8355513;28;19951;-66
2022/07/16 19:00:35;;;;;;;;;;;21.90;98.00;;;;;;8351107;28;19932;-66
2022/07/16 19:04:36;;;;;;;;;;;21.80;98.00;;;;;;8353640;28;20229;-66
2022/07/16 19:08:38;;;;;;;2.90;0.70;;;21.80;98.00;;;;;;8355882;28;19928;-66
2022/07/16 19:12:40;;;;;;;1.27;0.68;;;21.70;97.80;;;;;;8350317;28;20447;-66
2022/07/16 19:16:42;;;;;;;1.60;0.50;;;21.60;97.80;;;;;;8353002;28;20048;-66
2022/07/16 19:20:44;;;;;;;1.67;0.57;;;21.60;97.70;;;;;;8347817;28;20416;-66
2022/07/16 19:24:46;;;;;;;2.25;0.70;;;21.50;97.70;;;;;;8348757;28;20461;-66
2022/07/16 19:28:48;;;;;;;3.65;0.80;;;21.40;97.60;;;;;;8346756;28;20045;-66
2022/07/16 19:32:50;;;;;;;1.83;0.60;;;21.40;97.60;;;;;;8345987;28;20407;-66
2022/07/16 19:36:52;;;;;;;1.80;0.80;;;21.30;97.50;;;;;;8351975;28;20436;-66
2022/07/16 19:40:54;;;;;;;1.73;0.70;;;21.20;97.50;;;;;;8350825;28;20068;-66
2022/07/16 19:44:56;;;;;;;3.55;0.90;;;21.10;97.40;;;;;;8350980;28;20068;-66
2022/07/16 19:48:57;;;;;;;2.40;0.73;;;21.00;97.40;;;;;;8352165;28;20144;-66
2022/07/16 19:52:59;;;;;;;;;;;21.00;97.40;;;;;;8351298;28;20065;-66
2022/07/16 20:01:21;;;;;;;;;;;20.80;97.40;;;;;;8346786;28;19935;-66
2022/07/16 20:05:23;;;;;;;;;;;20.70;97.40;;;;;;8344261;28;19960;-66
2022/07/16 20:09:27;;;;;;;;;;;20.60;97.40;;;;;;8349552;28;19920;-66
2022/07/16 20:13:29;;;;;;;;;;;20.50;97.50;;;;;;8351924;28;19928;-66
2022/07/16 20:17:31;;;;;;;;;;;20.40;97.40;;;;;;8348858;28;19927;-65
2022/07/16 20:21:33;;;;;;;;;;;20.30;97.30;;;;;;8348064;28;19920;-65
2022/07/16 20:25:35;;;;;;;;;;;20.20;97.30;;;;;;8353148;28;20326;-66
2022/07/16 20:29:37;;;;;;;;;;;20.10;97.40;;;;;;8352422;28;19943;-66
2022/07/16 20:33:39;;;;;;;;;;;20.00;97.40;;;;;;8352361;28;20200;-66
2022/07/16 20:37:40;;;;;;;;;;;20.00;97.40;;;;;;8349014;28;19931;-66
2022/07/16 20:41:42;;;;;;;;;;;19.90;97.40;;;;;;8364186;28;19921;-66
2022/07/16 20:45:45;;;;;;;;;;;19.80;97.40;;;;;;8351707;28;20261;-66
2022/07/16 20:49:47;;;;;;;;;;;19.70;97.40;;;;;;8345042;28;19928;-66
2022/07/16 20:53:48;;;;;;;;;;;19.50;97.40;;;;;;8352244;28;20384;-66
2022/07/16 20:57:50;;;;;;;;;;;19.40;97.40;;;;;;8351081;28;19932;-66
2022/07/16 21:01:52;;;;;;;;;;;19.30;97.40;;;;;;8353832;28;19921;-66
2022/07/16 21:05:53;;;;;;;;;;;19.20;97.40;;;;;;8377157;28;20325;-66
2022/07/16 21:09:55;;;;;;;;;;;19.20;97.50;;;;;;8380251;28;20007;-66
2022/07/16 21:13:57;;;;;;;;;;;19.10;97.50;;;;;;8377228;28;20368;-66
2022/07/16 21:17:58;;;;;;;;;;;18.90;97.40;;;;;;8370775;28;20316;-66
2022/07/16 21:22:00;;;;;;;;;;;18.80;97.40;;;;;;8381742;28;19927;-66
2022/07/16 21:26:01;;;;;;;;;;;18.80;97.40;;;;;;8385013;28;19936;-66
2022/07/16 21:30:03;;;;;;;;;;;18.70;97.40;;;;;;8370613;28;19927;-66
2022/07/16 21:34:05;;;;;;;;;;;18.60;97.40;;;;;;8376497;28;19944;-66
2022/07/16 21:38:07;;;;;;;;;;;18.50;97.40;;;;;;8375919;28;19921;-66
2022/07/16 21:42:08;;;;;;;;;;;18.40;97.40;;;;;;8383339;28;19924;-66
2022/07/16 21:46:10;;;;;;;;;;;18.30;97.40;;;;;;8393733;28;19928;-66
2022/07/16 21:50:12;;;;;;;;;;;18.30;97.40;;;;;;8376340;28;19927;-66
2022/07/16 21:54:14;;;;;;;;;;;18.20;97.40;;;;;;8383974;28;19936;-66
2022/07/16 21:58:16;;;;;;;;;;;18.10;97.40;;;;;;8377915;28;19932;-66
2022/07/16 22:02:17;;;;;;;;;;;18.00;97.40;;;;;;8384756;28;19928;-66
2022/07/16 22:06:19;;;;;;;;;;;17.90;97.40;;;;;;8383601;28;19924;-66
2022/07/16 22:10:21;;;;;;;;;;;17.80;97.40;;;;;;8377943;28;20370;-66
2022/07/16 22:14:23;;;;;;;;;;;17.70;97.40;;;;;;8381522;28;19931;-66
2022/07/16 22:18:25;;;;;;;;;;;17.70;97.40;;;;;;8373951;28;19927;-66
2022/07/16 22:22:27;;;;;;;;;;;17.60;97.40;;;;;;8378965;28;19920;-65
2022/07/16 22:26:28;;;;;;;;;;;17.50;97.40;;;;;;8388231;28;19931;-66
2022/07/16 22:30:30;;;;;;;;;;;17.40;97.40;;;;;;8389692;28;19931;-66
2022/07/16 22:34:32;;;;;;;;;;;17.30;97.40;;;;;;8373556;28;19940;-66
2022/07/16 22:38:33;;;;;;;;;;;17.30;97.40;;;;;;8375196;28;19920;-66
2022/07/16 22:42:35;;;;;;;;;;;17.20;97.40;;;;;;8381670;28;19921;-66
2022/07/16 22:46:36;;;;;;;;;;;17.20;97.40;;;;;;8395163;28;19921;-66
2022/07/16 22:50:38;;;;;;;;;;;17.10;97.40;;;;;;8375348;28;19921;-66
2022/07/16 22:54:40;;;;;;;;;;;17.10;97.40;;;;;;8384662;28;20410;-65
2022/07/16 22:58:42;;;;;;;;;;;17.00;97.40;;;;;;8379516;28;19920;-65
2022/07/16 23:02:44;;;;;;;;;;;16.90;97.40;;;;;;8384083;28;19920;-66
2022/07/16 23:06:45;;;;;;;;;;;16.80;97.40;;;;;;8380489;28;20281;-66
2022/07/16 23:10:47;;;;;;;;;;;16.80;97.40;;;;;;8377940;28;19920;-66
2022/07/16 23:14:49;;;;;;;;;;;16.70;97.40;;;;;;8380972;28;19931;-65
2022/07/16 23:18:50;;;;;;;;;;;16.60;97.30;;;;;;8369523;28;20347;-66
2022/07/16 23:22:52;;;;;;;;;;;16.50;97.20;;;;;;8379780;28;20372;-66
2022/07/16 23:26:54;;;;;;;;;;;16.40;97.20;;;;;;8386324;28;20419;-66
2022/07/16 23:30:55;;;;;;;;;;;16.40;97.30;;;;;;8383831;28;19955;-66
2022/07/16 23:34:57;;;;;;;;;;;16.30;97.30;;;;;;8374881;28;20421;-66
2022/07/16 23:38:58;;;;;;;;;;;16.20;97.20;;;;;;8377763;28;20391;-66
2022/07/16 23:43:00;;;;;;;;;;;16.20;97.20;;;;;;8394126;28;20287;-66
2022/07/16 23:47:02;;;;;;;;;;;16.10;97.30;;;;;;8376402;28;20355;-66